createdAt,value
2022-10-06T00:01:13.000Z,13.3
2022-10-06T00:02:30.144Z,13.3
2022-10-06T00:03:46.279Z,13.3
2022-10-06T00:05:02.000Z,13.3
2022-10-06T00:06:18.561Z,13.3
2022-10-06T00:07:33.000Z,13.3
2022-10-06T00:08:49.000Z,13.3
2022-10-06T00:10:06.022Z,13.4
2022-10-06T00:11:21.000Z,13.4
2022-10-06T00:12:38.000Z,13.4
2022-10-06T00:13:54.000Z,13.4
2022-10-06T00:15:10.000Z,13.4
2022-10-06T00:16:26.000Z,13.4
2022-10-06T00:17:42.000Z,13.4
2022-10-06T00:18:58.000Z,13.4
2022-10-06T00:20:15.231Z,13.4
2022-10-06T00:21:31.000Z,13.4
2022-10-06T00:22:47.000Z,13.3
2022-10-06T00:24:02.000Z,13.3
2022-10-06T00:25:18.000Z,13.3
2022-10-06T00:26:34.000Z,13.2
2022-10-06T00:27:51.071Z,13.2
2022-10-06T00:29:06.000Z,13.1
2022-10-06T00:30:23.358Z,13.1
2022-10-06T00:31:39.512Z,13
2022-10-06T00:32:55.671Z,13
2022-10-06T00:34:11.000Z,13
2022-10-06T00:35:27.000Z,12.9
2022-10-06T00:36:44.087Z,12.9
2022-10-06T00:38:00.000Z,12.9
2022-10-06T00:39:16.000Z,12.9
2022-10-06T00:40:31.000Z,12.8
2022-10-06T00:41:47.000Z,12.8
2022-10-06T00:43:03.834Z,12.8
2022-10-06T00:44:19.000Z,12.8
2022-10-06T00:45:36.124Z,12.8
2022-10-06T00:46:52.000Z,12.8
2022-10-06T00:48:07.000Z,12.8
2022-10-06T00:49:23.584Z,12.8
2022-10-06T00:50:39.000Z,12.8
2022-10-06T00:51:55.869Z,12.8
2022-10-06T00:53:11.000Z,12.7
2022-10-06T00:54:28.166Z,12.7
2022-10-06T00:55:44.000Z,12.7
2022-10-06T00:57:00.000Z,12.7
2022-10-06T00:58:16.000Z,12.7
2022-10-06T00:59:32.000Z,12.6
2022-10-06T01:00:48.000Z,12.6
2022-10-06T01:02:05.040Z,12.6
2022-10-06T01:03:20.000Z,12.6
2022-10-06T01:04:36.000Z,12.6
2022-10-06T01:05:52.000Z,12.6
2022-10-06T01:07:08.000Z,12.6
2022-10-06T01:08:24.000Z,12.6
2022-10-06T01:09:40.000Z,12.7
2022-10-06T01:10:57.072Z,12.7
2022-10-06T01:12:12.000Z,12.8
2022-10-06T01:13:29.360Z,12.8
2022-10-06T01:14:45.000Z,12.8
2022-10-06T01:16:01.000Z,12.8
2022-10-06T01:17:17.800Z,12.9
2022-10-06T01:18:33.000Z,12.9
2022-10-06T01:19:49.000Z,12.9
2022-10-06T01:21:05.000Z,12.9
2022-10-06T01:22:21.417Z,12.9
2022-10-06T01:23:37.000Z,12.8
2022-10-06T01:24:53.000Z,12.8
2022-10-06T01:26:09.000Z,12.8
2022-10-06T01:27:25.000Z,12.8
2022-10-06T01:28:41.000Z,12.7
2022-10-06T01:29:58.000Z,12.7
2022-10-06T01:31:14.000Z,12.6
2022-10-06T01:32:30.567Z,12.6
2022-10-06T01:33:46.000Z,12.6
2022-10-06T01:35:02.000Z,12.6
2022-10-06T01:36:18.000Z,12.6
2022-10-06T01:37:33.000Z,12.6
2022-10-06T01:38:50.000Z,12.6
2022-10-06T01:40:06.000Z,12.6
2022-10-06T01:41:22.596Z,12.5
2022-10-06T01:42:38.740Z,12.5
2022-10-06T01:43:54.000Z,12.5
2022-10-06T01:45:10.000Z,12.5
2022-10-06T01:46:26.000Z,12.4
2022-10-06T01:47:43.000Z,12.4
2022-10-06T01:48:59.000Z,12.3
2022-10-06T01:50:15.000Z,12.3
2022-10-06T01:51:31.000Z,12.3
2022-10-06T01:52:47.000Z,12.2
2022-10-06T01:54:02.000Z,12.2
2022-10-06T01:55:18.000Z,12.1
2022-10-06T01:56:35.000Z,12.1
2022-10-06T01:57:51.000Z,12.1
2022-10-06T01:59:07.658Z,12.1
2022-10-06T02:00:23.000Z,12
2022-10-06T02:01:39.944Z,12
2022-10-06T02:02:55.000Z,12
2022-10-06T02:04:12.000Z,11.9
2022-10-06T02:05:28.000Z,11.9
2022-10-06T02:06:44.000Z,11.9
2022-10-06T02:08:00.000Z,11.9
2022-10-06T02:09:16.000Z,11.9
2022-10-06T02:10:31.000Z,11.9
2022-10-06T02:11:47.000Z,11.9
2022-10-06T02:13:04.279Z,11.8
2022-10-06T02:14:20.000Z,11.8
2022-10-06T02:15:36.000Z,11.9
2022-10-06T02:16:52.000Z,11.9
2022-10-06T02:18:08.000Z,11.9
2022-10-06T02:19:24.000Z,11.9
2022-10-06T02:20:41.149Z,11.9
2022-10-06T02:21:57.292Z,11.9
2022-10-06T02:23:13.000Z,11.9
2022-10-06T02:24:29.000Z,11.9
2022-10-06T02:25:45.000Z,11.9
2022-10-06T02:27:00.000Z,11.9
2022-10-06T02:28:16.000Z,11.9
2022-10-06T02:29:32.000Z,11.9
2022-10-06T02:30:49.000Z,11.9
2022-10-06T02:32:05.459Z,11.9
2022-10-06T02:33:21.000Z,11.9
2022-10-06T02:34:37.000Z,11.9
2022-10-06T02:35:53.902Z,11.8
2022-10-06T02:37:09.000Z,11.8
2022-10-06T02:38:25.000Z,11.8
2022-10-06T02:39:42.000Z,11.8
2022-10-06T02:40:58.000Z,11.8
2022-10-06T02:42:14.000Z,11.8
2022-10-06T02:43:29.000Z,11.9
2022-10-06T02:44:45.938Z,11.9
2022-10-06T02:46:01.000Z,11.9
2022-10-06T02:47:18.223Z,11.9
2022-10-06T02:48:34.382Z,12
2022-10-06T02:49:50.000Z,12
2022-10-06T02:51:06.000Z,12
2022-10-06T02:52:22.822Z,12
2022-10-06T02:53:38.000Z,12
2022-10-06T02:54:54.000Z,12
2022-10-06T02:56:11.000Z,12
2022-10-06T02:57:27.000Z,12
2022-10-06T02:58:43.000Z,12
2022-10-06T02:59:58.000Z,12
2022-10-06T03:01:14.000Z,12
2022-10-06T03:02:30.000Z,12
2022-10-06T03:03:46.000Z,12
2022-10-06T03:05:03.273Z,12
2022-10-06T03:06:19.000Z,12
2022-10-06T03:07:35.000Z,12
2022-10-06T03:08:51.000Z,12
2022-10-06T03:10:07.000Z,12
2022-10-06T03:11:24.012Z,12
2022-10-06T03:12:39.000Z,12
2022-10-06T03:13:56.000Z,12
2022-10-06T03:15:12.000Z,12
2022-10-06T03:16:27.000Z,12
2022-10-06T03:17:43.000Z,11.9
2022-10-06T03:18:59.000Z,11.9
2022-10-06T03:20:16.038Z,11.9
2022-10-06T03:21:31.000Z,11.8
2022-10-06T03:22:48.000Z,11.8
2022-10-06T03:24:04.000Z,11.7
2022-10-06T03:25:20.000Z,11.7
2022-10-06T03:26:36.000Z,11.6
2022-10-06T03:27:52.000Z,11.6
2022-10-06T03:29:08.000Z,11.6
2022-10-06T03:30:25.205Z,11.5
2022-10-06T03:31:41.000Z,11.5
2022-10-06T03:32:56.000Z,11.5
2022-10-06T03:34:12.000Z,11.4
2022-10-06T03:35:28.000Z,11.4
2022-10-06T03:36:44.000Z,11.4
2022-10-06T03:38:00.000Z,11.4
2022-10-06T03:39:17.232Z,11.4
2022-10-06T03:40:33.000Z,11.4
2022-10-06T03:41:49.000Z,11.3
2022-10-06T03:43:05.000Z,11.3
2022-10-06T03:44:21.813Z,11.3
2022-10-06T03:45:37.957Z,11.3
2022-10-06T03:46:53.000Z,11.3
2022-10-06T03:48:10.000Z,11.3
2022-10-06T03:49:25.000Z,11.2
2022-10-06T03:50:41.000Z,11.2
2022-10-06T03:51:57.701Z,11.2
2022-10-06T03:53:13.847Z,11.2
2022-10-06T03:54:29.000Z,11.2
2022-10-06T03:55:45.000Z,11.2
2022-10-06T03:57:02.000Z,11.1
2022-10-06T03:58:18.000Z,11.1
2022-10-06T03:59:34.000Z,11.1
2022-10-06T04:00:50.000Z,11.1
2022-10-06T04:02:06.000Z,11.1
2022-10-06T04:03:22.000Z,11.1
2022-10-06T04:04:38.000Z,11.1
2022-10-06T04:05:54.000Z,11.1
2022-10-06T04:07:10.000Z,11.1
2022-10-06T04:08:26.609Z,11.1
2022-10-06T04:09:42.755Z,11.1
2022-10-06T04:10:58.894Z,11
2022-10-06T04:12:14.000Z,11
2022-10-06T04:13:30.000Z,11
2022-10-06T04:14:47.000Z,11
2022-10-06T04:16:03.000Z,11
2022-10-06T04:17:19.624Z,11
2022-10-06T04:18:35.771Z,11
2022-10-06T04:19:51.920Z,11
2022-10-06T04:21:07.000Z,11
2022-10-06T04:22:23.000Z,11
2022-10-06T04:23:39.380Z,11
2022-10-06T04:24:55.000Z,11
2022-10-06T04:26:11.000Z,11
2022-10-06T04:27:27.000Z,11
2022-10-06T04:28:43.000Z,11
2022-10-06T04:29:59.000Z,11
2022-10-06T04:31:16.245Z,11
2022-10-06T04:32:32.000Z,11
2022-10-06T04:33:48.544Z,11
2022-10-06T04:35:04.000Z,11
2022-10-06T04:36:20.000Z,11
2022-10-06T04:37:36.000Z,11.1
2022-10-06T04:38:51.000Z,11.1
2022-10-06T04:40:08.000Z,11.1
2022-10-06T04:41:24.000Z,11.1
2022-10-06T04:42:40.000Z,11.2
2022-10-06T04:43:56.709Z,11.2
2022-10-06T04:45:12.000Z,11.2
2022-10-06T04:46:28.000Z,11.3
2022-10-06T04:47:44.000Z,11.3
2022-10-06T04:49:01.000Z,11.3
2022-10-06T04:50:17.000Z,11.3
2022-10-06T04:51:33.000Z,11.3
2022-10-06T04:52:49.000Z,11.4
2022-10-06T04:54:05.000Z,11.4
2022-10-06T04:55:20.000Z,11.4
2022-10-06T04:56:36.000Z,11.4
2022-10-06T04:57:53.329Z,11.4
2022-10-06T04:59:09.484Z,11.4
2022-10-06T05:00:25.000Z,11.5
2022-10-06T05:01:41.000Z,11.5
2022-10-06T05:02:56.000Z,11.5
2022-10-06T05:04:12.000Z,11.5
2022-10-06T05:05:28.000Z,11.5
2022-10-06T05:06:45.000Z,11.5
2022-10-06T05:08:01.000Z,11.5
2022-10-06T05:09:17.000Z,11.5
2022-10-06T05:10:33.000Z,11.5
2022-10-06T05:11:49.000Z,11.5
2022-10-06T05:13:05.000Z,11.5
2022-10-06T05:14:22.000Z,11.5
2022-10-06T05:15:38.399Z,11.5
2022-10-06T05:16:54.000Z,11.5
2022-10-06T05:18:10.682Z,11.5
2022-10-06T05:19:25.000Z,11.5
2022-10-06T05:20:41.981Z,11.5
2022-10-06T05:21:57.000Z,11.6
2022-10-06T05:23:14.284Z,11.6
2022-10-06T05:24:30.000Z,11.6
2022-10-06T05:25:46.567Z,11.6
2022-10-06T05:27:02.000Z,11.6
2022-10-06T05:28:18.000Z,11.6
2022-10-06T05:29:34.000Z,11.6
2022-10-06T05:30:50.000Z,11.6
2022-10-06T05:32:07.000Z,11.6
2022-10-06T05:33:23.000Z,11.6
2022-10-06T05:34:39.000Z,11.7
2022-10-06T05:35:54.000Z,11.7
2022-10-06T05:37:10.000Z,11.7
2022-10-06T05:38:26.000Z,11.7
2022-10-06T05:39:42.000Z,11.7
2022-10-06T05:40:59.000Z,11.7
2022-10-06T05:42:15.484Z,11.7
2022-10-06T05:43:31.000Z,11.7
2022-10-06T05:44:47.000Z,11.7
2022-10-06T05:46:03.926Z,11.7
2022-10-06T05:47:19.000Z,11.8
2022-10-06T05:48:36.212Z,11.8
2022-10-06T05:49:52.349Z,11.8
2022-10-06T05:51:08.000Z,11.8
2022-10-06T05:52:23.652Z,11.8
2022-10-06T05:53:39.805Z,11.8
2022-10-06T05:54:55.000Z,11.8
2022-10-06T05:56:12.093Z,11.8
2022-10-06T05:57:28.000Z,11.9
2022-10-06T05:58:44.380Z,11.9
2022-10-06T06:00:00.000Z,11.9
2022-10-06T06:01:16.000Z,11.9
2022-10-06T06:02:32.000Z,11.9
2022-10-06T06:03:48.980Z,11.9
2022-10-06T06:05:04.000Z,11.9
2022-10-06T06:06:21.000Z,11.9
2022-10-06T06:07:37.397Z,12
2022-10-06T06:08:52.566Z,12
2022-10-06T06:10:08.000Z,12
2022-10-06T06:11:24.000Z,12
2022-10-06T06:12:40.000Z,12
2022-10-06T06:13:56.000Z,12
2022-10-06T06:15:13.000Z,12
2022-10-06T06:16:29.000Z,12.1
2022-10-06T06:17:45.583Z,12.1
2022-10-06T06:19:01.000Z,12.1
2022-10-06T06:20:17.872Z,12.1
2022-10-06T06:21:34.028Z,12.1
2022-10-06T06:22:50.177Z,12.1
2022-10-06T06:24:06.000Z,12.2
2022-10-06T06:25:21.000Z,12.2
2022-10-06T06:26:37.000Z,12.2
2022-10-06T06:27:53.000Z,12.2
2022-10-06T06:29:09.000Z,12.2
2022-10-06T06:30:26.059Z,12.2
2022-10-06T06:31:41.000Z,12.2
2022-10-06T06:32:58.364Z,12.3
2022-10-06T06:34:14.502Z,12.3
2022-10-06T06:35:30.000Z,12.3
2022-10-06T06:36:46.000Z,12.3
2022-10-06T06:38:02.000Z,12.4
2022-10-06T06:39:19.088Z,12.4
2022-10-06T06:40:35.000Z,12.5
2022-10-06T06:41:50.000Z,12.5
2022-10-06T06:43:06.000Z,12.5
2022-10-06T06:44:22.000Z,12.6
2022-10-06T06:45:38.000Z,12.6
2022-10-06T06:46:54.984Z,12.6
2022-10-06T06:48:10.000Z,12.7
2022-10-06T06:49:27.271Z,12.7
2022-10-06T06:50:43.000Z,12.7
2022-10-06T06:51:59.000Z,12.7
2022-10-06T06:53:15.712Z,12.8
2022-10-06T06:54:31.000Z,12.8
2022-10-06T06:55:47.000Z,12.8
2022-10-06T06:57:03.000Z,12.9
2022-10-06T06:58:19.000Z,12.9
2022-10-06T06:59:35.459Z,12.9
2022-10-06T07:00:51.000Z,12.9
2022-10-06T07:02:07.000Z,13
2022-10-06T07:03:23.000Z,13
2022-10-06T07:04:39.000Z,13
2022-10-06T07:05:55.000Z,13.1
2022-10-06T07:07:12.344Z,13.1
2022-10-06T07:08:28.000Z,13.2
2022-10-06T07:09:44.000Z,13.2
2022-10-06T07:11:00.000Z,13.2
2022-10-06T07:12:16.000Z,13.2
2022-10-06T07:13:33.091Z,13.3
2022-10-06T07:14:48.240Z,13.3
2022-10-06T07:16:04.000Z,13.3
2022-10-06T07:17:20.537Z,13.3
2022-10-06T07:18:36.000Z,13.4
2022-10-06T07:19:52.000Z,13.4
2022-10-06T07:21:08.000Z,13.4
2022-10-06T07:22:24.000Z,13.4
2022-10-06T07:23:41.000Z,13.4
2022-10-06T07:24:57.000Z,13.4
2022-10-06T07:26:13.000Z,13.4
2022-10-06T07:27:29.000Z,13.4
2022-10-06T07:28:45.000Z,13.4
2022-10-06T07:30:01.000Z,13.4
2022-10-06T07:31:17.190Z,13.4
2022-10-06T07:32:33.000Z,13.4
2022-10-06T07:33:49.453Z,13.4
2022-10-06T07:35:05.000Z,13.4
2022-10-06T07:36:21.757Z,13.4
2022-10-06T07:37:37.896Z,13.4
2022-10-06T07:38:54.050Z,13.5
2022-10-06T07:40:09.000Z,13.5
2022-10-06T07:41:26.334Z,13.5
2022-10-06T07:42:42.000Z,13.5
2022-10-06T07:43:58.000Z,13.5
2022-10-06T07:45:14.000Z,13.5
2022-10-06T07:46:30.000Z,13.6
2022-10-06T07:47:45.000Z,13.6
2022-10-06T07:49:02.000Z,13.6
2022-10-06T07:50:18.000Z,13.6
2022-10-06T07:51:34.522Z,13.7
2022-10-06T07:52:50.682Z,13.7
2022-10-06T07:54:06.000Z,13.7
2022-10-06T07:55:22.965Z,13.8
2022-10-06T07:56:38.000Z,13.8
2022-10-06T07:57:55.000Z,13.9
2022-10-06T07:59:11.410Z,13.9
2022-10-06T08:00:27.000Z,14
2022-10-06T08:01:43.714Z,14
2022-10-06T08:02:59.000Z,14.1
2022-10-06T08:04:15.014Z,14.1
2022-10-06T08:05:31.160Z,14.2
2022-10-06T08:06:47.317Z,14.3
2022-10-06T08:08:03.448Z,14.4
2022-10-06T08:09:19.000Z,14.5
2022-10-06T08:10:35.000Z,14.6
2022-10-06T08:11:51.000Z,14.8
2022-10-06T08:13:07.000Z,14.8
2022-10-06T08:14:24.184Z,14.9
2022-10-06T08:15:40.000Z,15
2022-10-06T08:16:56.000Z,15.1
2022-10-06T08:18:12.000Z,15.1
2022-10-06T08:19:28.000Z,15.2
2022-10-06T08:20:43.000Z,15.3
2022-10-06T08:21:59.000Z,15.4
2022-10-06T08:23:16.000Z,15.5
2022-10-06T08:24:32.000Z,15.6
2022-10-06T08:25:48.000Z,15.7
2022-10-06T08:27:04.000Z,15.8
2022-10-06T08:28:20.810Z,15.9
2022-10-06T08:29:36.000Z,16
2022-10-06T08:30:52.000Z,16
2022-10-06T08:32:09.000Z,16.2
2022-10-06T08:33:25.000Z,16.3
2022-10-06T08:34:41.000Z,16.5
2022-10-06T08:35:57.000Z,16.7
2022-10-06T08:37:12.000Z,16.9
2022-10-06T08:38:28.000Z,17
2022-10-06T08:39:44.000Z,17.1
2022-10-06T08:41:01.000Z,17.2
2022-10-06T08:42:17.000Z,17.2
2022-10-06T08:43:33.000Z,17.4
2022-10-06T08:44:49.000Z,17.4
2022-10-06T08:46:05.000Z,17.5
2022-10-06T08:47:22.021Z,17.6
2022-10-06T08:48:38.189Z,17.7
2022-10-06T08:49:54.000Z,17.7
2022-10-06T08:51:10.000Z,17.7
2022-10-06T08:52:26.000Z,17.6
2022-10-06T08:53:41.000Z,17.5
2022-10-06T08:54:57.000Z,17.3
2022-10-06T08:56:13.000Z,17.1
2022-10-06T08:57:29.000Z,17
2022-10-06T08:58:46.000Z,16.9
2022-10-06T09:00:02.000Z,16.9
2022-10-06T09:01:18.000Z,16.8
2022-10-06T09:02:34.803Z,17
2022-10-06T09:03:50.000Z,17.1
2022-10-06T09:05:07.092Z,17.1
2022-10-06T09:06:23.236Z,17.3
2022-10-06T09:07:39.000Z,17.5
2022-10-06T09:08:55.000Z,17.6
2022-10-06T09:10:10.000Z,17.7
2022-10-06T09:11:26.000Z,17.7
2022-10-06T09:12:42.000Z,17.8
2022-10-06T09:13:58.000Z,17.9
2022-10-06T09:15:15.000Z,18
2022-10-06T09:16:31.000Z,18.1
2022-10-06T09:17:46.000Z,18.2
2022-10-06T09:20:18.000Z,18.5
2022-10-06T09:21:34.000Z,18.6
2022-10-06T09:22:50.000Z,18.7
2022-10-06T09:25:40.523Z,18.9
2022-10-06T09:27:55.766Z,19.2
2022-10-06T09:29:11.000Z,19.3
2022-10-06T09:31:44.219Z,19.5
2022-10-06T09:34:15.000Z,19.7
2022-10-06T09:35:31.655Z,19.9
2022-10-06T09:36:47.808Z,19.7
2022-10-06T09:38:03.955Z,19.6
2022-10-06T09:40:36.000Z,19.7
2022-10-06T09:41:52.000Z,19.9
2022-10-06T09:43:08.000Z,19.8
2022-10-06T09:44:24.000Z,19.8
2022-10-06T09:45:40.000Z,19.9
2022-10-06T09:46:56.977Z,19.8
2022-10-06T09:48:12.000Z,19.9
2022-10-06T09:49:29.000Z,19.8
2022-10-06T09:50:44.440Z,20
2022-10-06T09:52:00.000Z,20.2
2022-10-06T09:54:32.000Z,20.5
2022-10-06T09:55:48.000Z,20.6
2022-10-06T09:57:04.000Z,20.3
2022-10-06T09:58:21.000Z,20.1
2022-10-06T09:59:37.000Z,19.8
2022-10-06T10:00:53.000Z,19.6
2022-10-06T10:02:09.000Z,19.3
2022-10-06T10:03:25.000Z,19.1
2022-10-06T10:04:42.062Z,18.8
2022-10-06T10:05:57.000Z,18.6
2022-10-06T10:07:13.000Z,18.4
2022-10-06T10:08:29.000Z,18.2
2022-10-06T10:09:45.000Z,18.2
2022-10-06T10:11:01.798Z,18.1
2022-10-06T10:12:17.000Z,18.1
2022-10-06T10:13:33.000Z,18.1
2022-10-06T10:14:50.239Z,17.9
2022-10-06T10:16:06.379Z,17.9
2022-10-06T10:17:22.530Z,17.9
2022-10-06T10:18:38.000Z,17.9
2022-10-06T10:19:54.000Z,17.8
2022-10-06T10:21:10.000Z,17.7
2022-10-06T10:22:26.000Z,17.7
2022-10-06T10:23:42.000Z,17.9
2022-10-06T10:24:58.000Z,18.2
2022-10-06T10:26:14.000Z,18.4
2022-10-06T10:27:30.000Z,18.2
2022-10-06T10:28:46.870Z,18
2022-10-06T10:30:02.000Z,18
2022-10-06T10:31:19.154Z,17.9
2022-10-06T10:32:35.000Z,17.8
2022-10-06T10:33:51.000Z,17.7
2022-10-06T10:35:07.000Z,17.6
2022-10-06T10:36:23.000Z,17.6
2022-10-06T10:37:39.000Z,17.6
2022-10-06T10:38:55.000Z,17.5
2022-10-06T10:40:11.197Z,17.7
2022-10-06T10:41:27.344Z,18.1
2022-10-06T10:42:43.000Z,18.4
2022-10-06T10:43:59.000Z,18.5
2022-10-06T10:45:15.784Z,18.9
2022-10-06T10:46:31.000Z,19.4
2022-10-06T10:47:47.000Z,19.8
2022-10-06T10:49:04.000Z,20.1
2022-10-06T10:50:20.381Z,20.3
2022-10-06T10:51:36.000Z,20.5
2022-10-06T10:52:52.665Z,20.6
2022-10-06T10:54:08.000Z,20.5
2022-10-06T10:55:24.000Z,20.5
2022-10-06T10:56:39.000Z,20.2
2022-10-06T10:57:56.000Z,20
2022-10-06T10:59:12.414Z,19.9
2022-10-06T11:00:28.567Z,20.1
2022-10-06T11:01:44.000Z,20.1
2022-10-06T11:03:00.000Z,19.9
2022-10-06T11:04:17.011Z,19.6
2022-10-06T11:05:32.000Z,19.4
2022-10-06T11:06:49.000Z,19.3
2022-10-06T11:08:05.000Z,19
2022-10-06T11:09:21.000Z,18.7
2022-10-06T11:10:37.000Z,18.5
2022-10-06T11:11:53.880Z,18.5
2022-10-06T11:13:08.000Z,18.5
2022-10-06T11:14:24.000Z,18.9
2022-10-06T11:15:41.000Z,19.2
2022-10-06T11:16:57.000Z,19.6
2022-10-06T11:18:13.000Z,19.6
2022-10-06T11:19:29.000Z,19.6
2022-10-06T11:20:45.922Z,19.7
2022-10-06T11:22:01.000Z,20.1
2022-10-06T11:23:17.000Z,20.4
2022-10-06T11:24:34.366Z,20.5
2022-10-06T11:25:50.000Z,20.8
2022-10-06T11:27:06.666Z,20.8
2022-10-06T11:28:22.000Z,20.8
2022-10-06T11:29:37.000Z,20.8
2022-10-06T11:30:54.122Z,21
2022-10-06T11:32:10.036Z,21.3
2022-10-06T11:33:26.000Z,21.5
2022-10-06T11:34:42.000Z,21.6
2022-10-06T11:35:58.000Z,21.7
2022-10-06T11:37:14.000Z,21.2
2022-10-06T11:38:31.004Z,21.1
2022-10-06T11:39:46.000Z,21.2
2022-10-06T11:41:03.000Z,21.4
2022-10-06T11:42:19.000Z,21.4
2022-10-06T11:43:35.592Z,21.2
2022-10-06T11:44:51.000Z,21
2022-10-06T11:46:06.905Z,21.1
2022-10-06T11:47:23.058Z,21.2
2022-10-06T11:48:39.190Z,20.9
2022-10-06T11:49:55.000Z,21.1
2022-10-06T11:51:11.490Z,21.1
2022-10-06T11:52:27.000Z,21.2
2022-10-06T11:53:43.000Z,20.9
2022-10-06T11:54:59.000Z,20.9
2022-10-06T11:56:15.000Z,21.2
2022-10-06T11:57:31.000Z,21.4
2022-10-06T11:58:48.000Z,21
2022-10-06T12:00:04.511Z,21.3
2022-10-06T12:01:20.672Z,21.4
2022-10-06T12:02:35.830Z,21.2
2022-10-06T12:03:51.967Z,21.3
2022-10-06T12:05:08.109Z,21.1
2022-10-06T12:06:24.000Z,21.1
2022-10-06T12:07:40.000Z,21.1
2022-10-06T12:08:56.552Z,21.1
2022-10-06T12:10:12.000Z,20.9
2022-10-06T12:11:28.000Z,21
2022-10-06T12:12:44.000Z,21.1
2022-10-06T12:14:00.000Z,21.3
2022-10-06T12:15:17.000Z,21.3
2022-10-06T12:16:33.000Z,21.4
2022-10-06T12:17:49.577Z,21.4
2022-10-06T12:19:04.736Z,21.4
2022-10-06T12:20:20.000Z,21.7
2022-10-06T12:21:36.000Z,21.9
2022-10-06T12:22:52.000Z,21.8
2022-10-06T12:24:09.332Z,22
2022-10-06T12:25:25.000Z,21.9
2022-10-06T12:26:41.000Z,22.2
2022-10-06T12:27:57.000Z,22.4
2022-10-06T12:29:13.916Z,22.4
2022-10-06T12:30:29.000Z,22.2
2022-10-06T12:31:45.000Z,21.6
2022-10-06T12:33:02.358Z,21.2
2022-10-06T12:34:18.000Z,20.9
2022-10-06T12:35:33.000Z,21.1
2022-10-06T12:36:49.000Z,20.9
2022-10-06T12:38:05.954Z,20.7
2022-10-06T12:39:21.000Z,20.6
2022-10-06T12:40:38.000Z,20.6
2022-10-06T12:41:54.000Z,20.4
2022-10-06T12:43:10.546Z,20.1
2022-10-06T12:44:26.706Z,20.1
2022-10-06T12:45:42.832Z,20.2
2022-10-06T12:46:58.999Z,20
2022-10-06T12:48:14.000Z,19.9
2022-10-06T12:49:31.278Z,19.6
2022-10-06T12:50:47.000Z,19.5
2022-10-06T12:52:02.000Z,19.2
2022-10-06T12:53:18.736Z,19.1
2022-10-06T12:54:34.000Z,19
2022-10-06T12:55:50.000Z,19
2022-10-06T12:57:06.000Z,19
2022-10-06T12:58:23.000Z,18.9
2022-10-06T12:59:39.000Z,18.8
2022-10-06T13:00:55.000Z,18.8
2022-10-06T13:02:11.000Z,19
2022-10-06T13:03:27.907Z,19.2
2022-10-06T13:04:43.000Z,19.5
2022-10-06T13:05:59.000Z,19.8
2022-10-06T13:07:16.000Z,19.8
2022-10-06T13:08:31.000Z,19.8
2022-10-06T13:09:47.000Z,19.8
2022-10-06T13:11:03.806Z,19.7
2022-10-06T13:12:19.961Z,19.6
2022-10-06T13:13:35.000Z,19.4
2022-10-06T13:14:52.258Z,19.2
2022-10-06T13:16:08.000Z,19.1
2022-10-06T13:17:24.000Z,19.1
2022-10-06T13:18:40.000Z,19.2
2022-10-06T13:19:56.833Z,19.5
2022-10-06T13:21:12.977Z,19.4
2022-10-06T13:22:28.000Z,19.3
2022-10-06T13:23:45.000Z,19.2
2022-10-06T13:25:00.000Z,19.1
2022-10-06T13:26:16.598Z,19
2022-10-06T13:27:32.000Z,18.8
2022-10-06T13:28:48.000Z,18.6
2022-10-06T13:30:04.000Z,18.4
2022-10-06T13:31:21.169Z,18.3
2022-10-06T13:32:36.000Z,18.1
2022-10-06T13:33:52.481Z,18
2022-10-06T13:35:08.000Z,17.9
2022-10-06T13:36:24.791Z,17.8
2022-10-06T13:37:40.000Z,17.7
2022-10-06T13:38:57.068Z,17.6
2022-10-06T13:40:12.000Z,17.5
2022-10-06T13:41:29.000Z,17.5
2022-10-06T13:42:45.000Z,17.5
2022-10-06T13:44:01.000Z,17.7
2022-10-06T13:45:17.000Z,17.9
2022-10-06T13:46:33.000Z,18.2
2022-10-06T13:47:50.092Z,18.2
2022-10-06T13:49:05.000Z,18.2
2022-10-06T13:50:21.000Z,18.1
2022-10-06T13:51:37.554Z,18
2022-10-06T13:52:53.000Z,18
2022-10-06T13:54:09.000Z,17.9
2022-10-06T13:55:25.000Z,18
2022-10-06T13:56:42.137Z,18
2022-10-06T13:57:58.291Z,18
2022-10-06T13:59:14.435Z,18.1
2022-10-06T14:00:30.586Z,18.1
2022-10-06T14:01:46.723Z,18.1
2022-10-06T14:03:02.880Z,18
2022-10-06T14:04:18.000Z,17.9
2022-10-06T14:05:34.182Z,17.9
2022-10-06T14:06:50.000Z,17.9
2022-10-06T14:08:06.000Z,17.8
2022-10-06T14:09:22.000Z,17.7
2022-10-06T14:10:38.000Z,17.6
2022-10-06T14:11:54.909Z,17.5
2022-10-06T14:13:10.000Z,17.5
2022-10-06T14:14:26.000Z,17.5
2022-10-06T14:15:43.000Z,17.6
2022-10-06T14:16:59.000Z,17.6
2022-10-06T14:18:15.000Z,17.6
2022-10-06T14:19:31.791Z,17.6
2022-10-06T14:20:47.939Z,17.6
2022-10-06T14:22:03.111Z,17.7
2022-10-06T14:23:19.000Z,17.7
2022-10-06T14:24:35.395Z,17.7
2022-10-06T14:25:51.000Z,17.6
2022-10-06T14:27:07.000Z,17.5
2022-10-06T14:28:23.844Z,17.5
2022-10-06T14:29:39.000Z,17.4
2022-10-06T14:30:55.000Z,17.3
2022-10-06T14:32:12.000Z,17.2
2022-10-06T14:33:28.000Z,17.1
2022-10-06T14:34:44.000Z,17.1
2022-10-06T14:36:00.000Z,17
2022-10-06T14:37:16.000Z,17
2022-10-06T14:38:31.000Z,17
2022-10-06T14:39:47.000Z,17
2022-10-06T14:41:04.000Z,17
2022-10-06T14:42:20.000Z,17
2022-10-06T14:43:36.609Z,17
2022-10-06T14:44:52.000Z,17
2022-10-06T14:46:08.917Z,17
2022-10-06T14:47:24.000Z,16.9
2022-10-06T14:48:41.193Z,16.9
2022-10-06T14:49:57.000Z,16.9
2022-10-06T14:51:13.000Z,16.9
2022-10-06T14:52:29.000Z,17
2022-10-06T14:53:45.000Z,17
2022-10-06T14:55:00.000Z,17.1
2022-10-06T14:56:16.000Z,17.1
2022-10-06T14:57:33.000Z,17.1
2022-10-06T14:58:49.000Z,17.1
2022-10-06T15:00:05.540Z,17
2022-10-06T15:01:21.000Z,17
2022-10-06T15:02:37.848Z,16.9
2022-10-06T15:03:53.980Z,16.9
2022-10-06T15:05:09.000Z,16.8
2022-10-06T15:06:26.000Z,16.8
2022-10-06T15:07:42.000Z,16.7
2022-10-06T15:08:58.000Z,16.7
2022-10-06T15:10:14.000Z,16.6
2022-10-06T15:11:29.869Z,16.6
2022-10-06T15:12:46.021Z,16.5
2022-10-06T15:14:01.000Z,16.5
2022-10-06T15:15:18.316Z,16.4
2022-10-06T15:16:34.000Z,16.4
2022-10-06T15:17:50.619Z,16.4
2022-10-06T15:19:06.000Z,16.3
2022-10-06T15:20:22.000Z,16.3
2022-10-06T15:21:38.000Z,16.3
2022-10-06T15:22:54.000Z,16.2
2022-10-06T15:24:11.000Z,16.1
2022-10-06T15:25:27.000Z,16.1
2022-10-06T15:26:43.000Z,16
2022-10-06T15:27:58.000Z,15.9
2022-10-06T15:29:14.950Z,15.8
2022-10-06T15:30:31.083Z,15.8
2022-10-06T15:31:47.236Z,15.7
2022-10-06T15:33:03.000Z,15.6
2022-10-06T15:34:19.000Z,15.6
2022-10-06T15:35:35.000Z,15.5
2022-10-06T15:36:51.821Z,15.5
2022-10-06T15:38:07.000Z,15.5
2022-10-06T15:39:23.000Z,15.4
2022-10-06T15:40:40.000Z,15.4
2022-10-06T15:41:56.416Z,15.4
2022-10-06T15:43:12.549Z,15.3
2022-10-06T15:44:27.000Z,15.3
2022-10-06T15:45:43.634Z,15.3
2022-10-06T15:47:00.009Z,15.2
2022-10-06T15:48:15.000Z,15.2
2022-10-06T15:49:32.299Z,15.2
2022-10-06T15:50:48.000Z,15.1
2022-10-06T15:52:04.000Z,15.1
2022-10-06T15:53:20.738Z,15.1
2022-10-06T15:54:36.000Z,15.1
2022-10-06T15:55:52.000Z,15.1
2022-10-06T15:57:08.000Z,15
2022-10-06T15:58:25.333Z,15
2022-10-06T15:59:41.000Z,14.9
2022-10-06T16:00:56.000Z,14.9
2022-10-06T16:02:12.773Z,14.9
2022-10-06T16:03:28.000Z,14.8
2022-10-06T16:04:45.060Z,14.8
2022-10-06T16:06:00.000Z,14.7
2022-10-06T16:07:17.348Z,14.7
2022-10-06T16:08:33.000Z,14.6
2022-10-06T16:09:49.000Z,14.6
2022-10-06T16:11:05.000Z,14.6
2022-10-06T16:12:21.949Z,14.5
2022-10-06T16:13:38.075Z,14.5
2022-10-06T16:14:54.234Z,14.5
2022-10-06T16:16:10.000Z,14.4
2022-10-06T16:17:25.000Z,14.4
2022-10-06T16:18:41.671Z,14.4
2022-10-06T16:19:57.000Z,14.3
2022-10-06T16:21:13.000Z,14.3
2022-10-06T16:22:30.110Z,14.3
2022-10-06T16:23:46.000Z,14.2
2022-10-06T16:25:02.399Z,14.2
2022-10-06T16:26:18.553Z,14.2
2022-10-06T16:27:34.000Z,14.1
2022-10-06T16:28:50.000Z,14.1
2022-10-06T16:30:06.000Z,14.1
2022-10-06T16:31:23.126Z,14
2022-10-06T16:32:39.000Z,14
2022-10-06T16:33:54.000Z,14
2022-10-06T16:35:10.000Z,13.9
2022-10-06T16:36:26.721Z,13.9
2022-10-06T16:37:42.000Z,13.9
2022-10-06T16:38:58.000Z,13.8
2022-10-06T16:40:14.000Z,13.8
2022-10-06T16:41:31.000Z,13.8
2022-10-06T16:42:47.451Z,13.8
2022-10-06T16:44:03.000Z,13.8
2022-10-06T16:45:19.000Z,13.7
2022-10-06T16:46:35.000Z,13.7
2022-10-06T16:47:51.000Z,13.7
2022-10-06T16:49:07.000Z,13.7
2022-10-06T16:50:23.000Z,13.7
2022-10-06T16:51:39.000Z,13.6
2022-10-06T16:52:55.000Z,13.6
2022-10-06T16:54:11.000Z,13.6
2022-10-06T16:55:27.000Z,13.5
2022-10-06T16:56:44.066Z,13.5
2022-10-06T16:58:00.220Z,13.5
2022-10-06T16:59:16.000Z,13.5
2022-10-06T17:00:32.509Z,13.5
2022-10-06T17:01:48.000Z,13.5
2022-10-06T17:03:04.000Z,13.4
2022-10-06T17:04:20.000Z,13.4
2022-10-06T17:05:36.000Z,13.4
2022-10-06T17:06:52.000Z,13.4
2022-10-06T17:08:08.000Z,13.4
2022-10-06T17:09:24.523Z,13.3
2022-10-06T17:10:40.000Z,13.3